Time;durP1;ratioP1;P1;durP2;ratioP2;P2;SDS_P1;SDS_P2;PMS_P1;PMS_P2;Temp;Humidity;BMP_temperature;BMP_pressure;BME280_temperature;BME280_humidity;BME280_pressure;Samples;Min_cycle;Max_cycle;Signal;HPM_P1;HPM_P2
2021/10/02 00:46:15;;;;;;;7.47;2.42;;;8.70;99.90;;;;;;6192223;23;20009;-85
2021/10/02 00:48:46;;;;;;;11.95;4.55;;;8.60;99.90;;;;;;6165623;23;20017;-83
2021/10/02 00:51:16;;;;;;;;;;;8.70;99.90;;;;;;6169012;23;20020;-84
2021/10/02 00:53:45;;;;;;;7.93;2.90;;;8.70;99.90;;;;;;6170514;23;19916;-83
2021/10/02 00:56:14;;;;;;;4.22;2.53;;;8.70;99.90;;;;;;6162532;23;20027;-84
2021/10/02 00:58:49;;;;;;;10.85;3.55;;;8.70;99.90;;;;;;6170019;23;20315;-82
2021/10/02 01:01:31;;;;;;;13.55;4.13;;;8.70;99.90;;;;;;6163748;23;20462;-84
2021/10/02 01:04:30;;;;;;;12.45;2.60;;;8.70;99.90;;;;;;6193442;23;20032;-85
2021/10/02 01:07:17;;;;;;;9.13;2.92;;;8.70;99.90;;;;;;6139054;23;20013;-84
2021/10/02 01:10:05;;;;;;;17.05;6.35;;;9.50;99.90;;;;;;6194558;23;20036;-84
2021/10/02 01:13:00;;;;;;;10.40;3.33;;;8.70;99.90;;;;;;6136330;23;20028;-84
2021/10/02 01:15:53;;;;;;;14.60;3.65;;;8.70;99.90;;;;;;6138735;23;20024;-84
2021/10/02 01:18:29;;;;;;;14.52;4.60;;;8.70;99.90;;;;;;6138031;23;20029;-85
2021/10/02 01:21:31;;;;;;;13.55;7.45;;;8.60;99.90;;;;;;6162293;23;20040;-84
2021/10/02 01:24:24;;;;;;;15.23;3.83;;;8.70;99.90;;;;;;6161444;23;20040;-82
2021/10/02 01:27:32;;;;;;;10.10;2.75;;;8.70;99.90;;;;;;6163147;23;20021;-82
2021/10/02 01:30:10;;;;;;;10.18;2.83;;;8.70;99.90;;;;;;6193754;23;20021;-84
2021/10/02 01:32:58;;;;;;;8.95;3.47;;;8.70;99.90;;;;;;6159140;23;20020;-83
2021/10/02 01:49:22;;;;;;;5.85;3.33;;;8.70;99.90;;;;;;6164844;23;20032;-85
2021/10/02 01:51:56;;;;;;;11.60;3.60;;;8.70;99.90;;;;;;6194683;23;20027;-84
2021/10/02 01:54:28;;;;;;;14.30;3.90;;;8.70;99.90;;;;;;6139867;23;20438;-83
2021/10/02 01:56:57;;;;;;;11.68;3.35;;;8.70;99.90;;;;;;6165770;23;20040;-86
2021/10/02 01:59:32;;;;;;;9.40;4.63;;;9.50;99.90;;;;;;6164858;23;20021;-84
2021/10/02 02:02:03;;;;;;;8.50;4.13;;;8.70;99.90;;;;;;6168618;23;20009;-84
2021/10/02 02:04:32;;;;;;;12.07;3.07;;;8.70;99.90;;;;;;6163976;23;20032;-85
2021/10/02 02:07:01;;;;;;;21.13;4.25;;;9.20;99.90;;;;;;6165294;23;20089;-87
2021/10/02 02:09:37;;;;;;;14.90;4.50;;;9.70;99.90;;;;;;6144660;23;20019;-83
2021/10/02 02:12:15;;;;;;;8.10;2.50;;;8.80;99.90;;;;;;6167607;23;20013;-84
2021/10/02 02:14:47;;;;;;;7.28;3.70;;;8.90;99.90;;;;;;6163241;23;20746;-83
2021/10/02 02:17:19;;;;;;;10.02;2.70;;;8.90;99.90;;;;;;6140066;23;20021;-85
2021/10/02 02:19:49;;;;;;;11.68;2.28;;;8.90;99.90;;;;;;6139853;23;20017;-82
2021/10/02 02:22:17;;;;;;;8.57;2.60;;;8.90;99.90;;;;;;6144752;23;20024;-85
2021/10/02 02:24:46;;;;;;;10.05;3.38;;;9.00;99.90;;;;;;6167052;23;20013;-84
2021/10/02 02:27:15;;;;;;;8.45;2.67;;;9.00;99.90;;;;;;6162674;23;20027;-86
2021/10/02 02:29:43;;;;;;;13.88;3.88;;;9.00;99.90;;;;;;6193034;23;20021;-85
2021/10/02 02:32:13;;;;;;;8.02;1.98;;;9.10;99.90;;;;;;6164279;23;20040;-83
2021/10/02 02:34:47;;;;;;;9.15;3.17;;;9.00;99.90;;;;;;6164254;23;20025;-82
2021/10/02 02:37:15;;;;;;;9.20;2.40;;;9.10;99.90;;;;;;6164572;23;20017;-83
2021/10/02 02:39:44;;;;;;;10.95;2.30;;;9.20;99.90;;;;;;6162974;23;20025;-83
2021/10/02 02:42:13;;;;;;;4.55;2.30;;;9.10;99.90;;;;;;6114367;23;20013;-86
2021/10/02 02:44:42;;;;;;;6.85;3.75;;;9.10;99.90;;;;;;6186630;23;20024;-85
2021/10/02 02:47:23;;;;;;;11.88;4.03;;;9.10;99.90;;;;;;6187667;23;20135;-82
2021/10/02 02:49:57;;;;;;;11.02;2.88;;;9.10;99.90;;;;;;6191266;23;20009;-84
2021/10/02 02:52:37;;;;;;;7.70;2.45;;;9.10;99.90;;;;;;6161567;23;20472;-85
2021/10/02 02:55:16;;;;;;;;;;;9.90;99.90;;;;;;6162656;23;20029;-84
2021/10/02 02:58:18;;;;;;;16.42;2.55;;;9.20;99.90;;;;;;6160484;23;19916;-85
2021/10/02 03:01:00;;;;;;;18.65;4.95;;;9.20;99.90;;;;;;6164212;23;20017;-83
2021/10/02 03:03:34;;;;;;;13.18;3.40;;;9.00;99.90;;;;;;6141340;23;20457;-85
2021/10/02 03:06:12;;;;;;;23.58;5.93;;;9.20;99.90;;;;;;6161605;23;20021;-86
2021/10/02 03:08:46;;;;;;;19.50;6.20;;;9.20;99.90;;;;;;6134942;23;20013;-83
2021/10/02 03:11:19;;;;;;;19.63;3.85;;;9.20;99.90;;;;;;6190137;23;20020;-81
2021/10/02 03:13:56;;;;;;;11.82;3.25;;;9.20;99.90;;;;;;6190253;23;20014;-81
2021/10/02 03:16:29;;;;;;;13.77;4.25;;;9.20;99.90;;;;;;6165852;23;20013;-84
2021/10/02 03:19:01;;;;;;;8.52;2.08;;;9.20;99.90;;;;;;6189270;23;20029;-83
2021/10/02 03:21:32;;;;;;;10.20;3.05;;;9.20;99.90;;;;;;6189369;23;20035;-82
2021/10/02 03:24:02;;;;;;;11.48;2.97;;;9.20;99.90;;;;;;6160292;23;20028;-84
2021/10/02 03:26:32;;;;;;;7.07;2.42;;;9.20;99.90;;;;;;6158458;23;20024;-83
2021/10/02 03:29:03;;;;;;;15.20;5.78;;;9.20;99.90;;;;;;6162889;23;20028;-84
2021/10/02 03:31:34;;;;;;;6.63;2.90;;;9.50;99.90;;;;;;6160558;23;20033;-85
2021/10/02 03:34:06;;;;;;;13.18;5.65;;;9.20;99.90;;;;;;6137445;23;20450;-83
2021/10/02 03:36:35;;;;;;;8.05;3.13;;;9.20;99.90;;;;;;6187549;23;20020;-87
2021/10/02 03:39:04;;;;;;;9.18;2.28;;;9.20;99.90;;;;;;6188073;23;20032;-87
2021/10/02 03:41:33;;;;;;;9.38;2.30;;;9.20;99.90;;;;;;6136496;23;20021;-82
2021/10/02 03:44:04;;;;;;;9.05;2.67;;;9.20;99.90;;;;;;6185160;23;20028;-85
2021/10/02 03:46:35;;;;;;;8.73;2.55;;;9.30;99.90;;;;;;6138534;23;20019;-85
2021/10/02 03:49:04;;;;;;;14.35;4.10;;;10.10;99.90;;;;;;6139424;23;20023;-88
2021/10/02 03:51:38;;;;;;;5.28;2.30;;;9.30;99.90;;;;;;6164383;23;20021;-86
2021/10/02 03:54:12;;;;;;;15.00;2.50;;;10.00;99.90;;;;;;6169832;23;20017;-84
2021/10/02 03:56:41;;;;;;;8.15;2.33;;;9.20;99.90;;;;;;6163251;23;20021;-84
2021/10/02 03:59:12;;;;;;;14.68;3.30;;;9.30;99.90;;;;;;6170638;23;20013;-85
2021/10/02 04:01:45;;;;;;;12.70;2.80;;;9.20;99.90;;;;;;6141354;23;20031;-85
2021/10/02 04:04:16;;;;;;;7.32;2.78;;;9.20;99.90;;;;;;6167931;23;20025;-83
2021/10/02 04:06:45;;;;;;;8.25;2.55;;;9.30;99.90;;;;;;6147764;23;20024;-84
2021/10/02 04:09:24;;;;;;;11.10;2.70;;;9.30;99.90;;;;;;6173965;23;20076;-85
2021/10/02 04:11:55;;;;;;;13.85;2.80;;;9.30;99.90;;;;;;6167764;23;20023;-85
2021/10/02 04:14:24;;;;;;;9.02;2.92;;;9.30;99.90;;;;;;6114334;23;20322;-85
2021/10/02 04:16:58;;;;;;;12.10;2.67;;;9.30;99.90;;;;;;6169911;23;20339;-84
2021/10/02 04:19:29;;;;;;;18.73;2.92;;;9.30;99.90;;;;;;6171862;23;20017;-86
2021/10/02 04:22:00;;;;;;;12.52;2.72;;;9.50;99.90;;;;;;6164956;23;20028;-86
2021/10/02 04:24:31;;;;;;;7.65;2.60;;;9.30;99.90;;;;;;6167423;23;20017;-85
2021/10/02 04:27:03;;;;;;;7.30;2.67;;;9.30;99.90;;;;;;6141409;23;20017;-83
2021/10/02 04:29:33;;;;;;;;;;;9.30;99.90;;;;;;6167613;23;20025;-85
2021/10/02 04:32:01;;;;;;;12.80;2.97;;;9.30;99.90;;;;;;6163307;23;19935;-85
2021/10/02 04:34:33;;;;;;;;;;;9.40;99.90;;;;;;6169736;23;20013;-84
2021/10/02 04:37:03;;;;;;;8.43;2.63;;;9.40;99.90;;;;;;6115517;23;19920;-84
2021/10/02 04:39:33;;;;;;;6.28;2.25;;;9.40;99.90;;;;;;6168371;23;20028;-85
2021/10/02 04:42:02;;;;;;;9.43;2.60;;;9.40;99.90;;;;;;6162655;23;20373;-84
2021/10/02 04:44:32;;;;;;;12.65;3.75;;;9.40;99.90;;;;;;6165030;23;20024;-85
2021/10/02 04:47:00;;;;;;;12.27;3.30;;;9.40;99.90;;;;;;6193434;23;20028;-86
2021/10/02 04:49:30;;;;;;;14.60;4.38;;;9.40;99.90;;;;;;6195408;23;20013;-86
2021/10/02 04:51:58;;;;;;;29.25;2.65;;;9.40;99.90;;;;;;6164907;23;20021;-87
2021/10/02 04:54:27;;;;;;;5.82;3.00;;;9.40;99.90;;;;;;6164280;23;20031;-86
2021/10/02 04:56:56;;;;;;;8.80;3.15;;;9.40;99.90;;;;;;6139055;23;20017;-86
2021/10/02 04:59:28;;;;;;;9.68;2.10;;;9.90;99.90;;;;;;6114547;23;20017;-88
2021/10/02 05:01:56;;;;;;;9.05;2.30;;;9.40;99.90;;;;;;6115724;23;20025;-87
2021/10/02 05:04:24;;;;;;;11.95;3.17;;;9.40;99.90;;;;;;6140052;23;20028;-85
2021/10/02 05:06:53;;;;;;;8.70;3.47;;;9.30;99.90;;;;;;6165304;23;20013;-83
2021/10/02 05:09:21;;;;;;;13.13;2.80;;;9.40;99.90;;;;;;6165803;23;20017;-84
2021/10/02 05:11:49;;;;;;;5.75;2.20;;;9.40;99.90;;;;;;6192492;23;20013;-87
2021/10/02 05:14:18;;;;;;;8.00;2.72;;;9.30;99.90;;;;;;6165188;23;20028;-84
2021/10/02 05:16:46;;;;;;;16.73;3.47;;;9.40;99.90;;;;;;6189802;23;20017;-86
2021/10/02 05:19:17;;;;;;;8.98;3.70;;;9.50;99.90;;;;;;6189408;23;20441;-82
2021/10/02 05:21:49;;;;;;;6.22;2.47;;;9.20;99.90;;;;;;6162276;23;20023;-86
2021/10/02 05:24:17;;;;;;;9.45;2.92;;;9.20;99.90;;;;;;6138376;23;20031;-84
2021/10/02 05:26:57;;;;;;;17.02;3.47;;;9.80;99.90;;;;;;6164119;23;20031;-85
2021/10/02 05:29:26;;;;;;;9.60;2.45;;;9.10;99.90;;;;;;6161840;23;20031;-87
2021/10/02 05:31:56;;;;;;;6.55;2.28;;;9.10;99.90;;;;;;6162162;23;20024;-83
2021/10/02 05:34:24;;;;;;;8.00;2.42;;;9.00;99.90;;;;;;6116629;23;20035;-86
2021/10/02 05:36:57;;;;;;;12.15;2.70;;;9.00;99.90;;;;;;6143054;23;20143;-85
2021/10/02 05:39:26;;;;;;;11.40;3.10;;;9.00;99.90;;;;;;6138882;23;20021;-85
2021/10/02 05:41:56;;;;;;;7.55;2.70;;;9.00;99.90;;;;;;6168728;23;20012;-85
2021/10/02 05:44:25;;;;;;;22.00;3.03;;;9.10;99.90;;;;;;6168647;23;20337;-85
2021/10/02 05:47:00;;;;;;;2.80;1.70;;;9.00;99.90;;;;;;6168228;23;20453;-86
2021/10/02 05:49:30;;;;;;;8.00;2.88;;;9.20;99.90;;;;;;6118664;23;20021;-84
2021/10/02 05:52:00;;;;;;;7.07;2.30;;;9.20;99.90;;;;;;6169328;23;20024;-85
2021/10/02 05:54:39;;;;;;;7.43;2.45;;;9.10;99.90;;;;;;6173226;23;20031;-85
2021/10/02 05:57:11;;;;;;;12.73;2.88;;;9.20;99.90;;;;;;6141068;23;20397;-85
2021/10/02 05:59:40;;;;;;;9.32;2.72;;;9.30;99.90;;;;;;6168244;23;20502;-83
2021/10/02 06:02:10;;;;;;;6.82;2.20;;;9.30;99.90;;;;;;6142502;23;20013;-85
2021/10/02 06:04:41;;;;;;;10.75;3.20;;;9.30;99.90;;;;;;6141258;23;20353;-84
2021/10/02 06:07:12;;;;;;;5.40;2.70;;;9.40;99.90;;;;;;6169793;23;20023;-84
2021/10/02 06:09:47;;;;;;;7.88;4.03;;;9.20;99.90;;;;;;6167228;23;20031;-85
2021/10/02 06:12:19;;;;;;;17.48;3.13;;;9.50;99.90;;;;;;6141127;23;20017;-83
2021/10/02 06:14:53;;;;;;;16.80;3.78;;;9.60;99.90;;;;;;6142844;23;20194;-83
2021/10/02 06:17:22;;;;;;;;;;;9.70;99.90;;;;;;6191635;23;20013;-85
2021/10/02 06:20:13;;;;;;;;;;;;;;;;;;;;;
2021/10/02 06:22:53;;;;;;;9.32;3.55;;;9.80;99.90;;;;;;6190553;23;20020;-82
2021/10/02 06:25:22;;;;;;;8.38;2.20;;;9.90;99.90;;;;;;6141692;23;20362;-84
2021/10/02 06:27:53;;;;;;;12.50;3.33;;;10.00;99.90;;;;;;6189273;23;20028;-85
2021/10/02 06:30:24;;;;;;;8.88;3.25;;;10.00;99.90;;;;;;6164190;23;20025;-85
2021/10/02 06:32:55;;;;;;;10.23;2.80;;;10.10;99.90;;;;;;6167778;23;20017;-85
2021/10/02 06:35:24;;;;;;;5.88;2.17;;;10.40;99.90;;;;;;6166222;23;20021;-83
2021/10/02 06:38:07;;;;;;;7.72;2.10;;;10.30;99.90;;;;;;6190027;23;20017;-81
2021/10/02 06:40:40;;;;;;;12.23;2.67;;;10.30;99.90;;;;;;6165695;23;20013;-83
2021/10/02 06:43:09;;;;;;;5.60;2.33;;;10.40;99.90;;;;;;6165909;23;20457;-84
2021/10/02 06:45:48;;;;;;;12.77;3.08;;;10.40;99.90;;;;;;6194973;23;20559;-84
2021/10/02 06:48:22;;;;;;;10.73;2.85;;;10.50;99.90;;;;;;6141650;23;20017;-85
2021/10/02 06:51:08;;;;;;;11.77;6.30;;;10.50;99.90;;;;;;6170485;23;20051;-84
2021/10/02 06:53:46;;;;;;;7.90;2.63;;;10.50;99.90;;;;;;6195117;23;20021;-87
2021/10/02 06:56:19;;;;;;;8.88;4.47;;;10.60;99.90;;;;;;6142364;23;20017;-82
2021/10/02 06:58:56;;;;;;;12.77;3.30;;;10.60;99.90;;;;;;6120103;23;20028;-82
2021/10/02 07:01:26;;;;;;;9.43;2.75;;;10.60;99.90;;;;;;6173645;23;20017;-84
2021/10/02 07:03:59;;;;;;;7.43;2.28;;;10.70;99.90;;;;;;6142659;23;20023;-84
2021/10/02 07:06:30;;;;;;;9.27;4.07;;;10.70;99.90;;;;;;6165209;23;20551;-84
2021/10/02 07:09:06;;;;;;;;;;;10.70;99.90;;;;;;6143932;23;20031;-85
2021/10/02 07:11:37;;;;;;;20.50;3.33;;;10.80;99.90;;;;;;6196670;23;19922;-82
2021/10/02 07:14:07;;;;;;;19.52;2.97;;;10.80;99.90;;;;;;6120296;23;20020;-85
2021/10/02 07:16:44;;;;;;;9.27;2.60;;;10.90;99.90;;;;;;6170798;23;20345;-83
2021/10/02 07:19:16;;;;;;;4.55;2.40;;;10.50;99.90;;;;;;6166944;23;20029;-87
2021/10/02 07:21:55;;;;;;;24.70;5.05;;;10.90;99.90;;;;;;6168574;23;20023;-84
2021/10/02 07:24:36;;;;;;;17.02;4.75;;;11.00;99.90;;;;;;6192278;23;20021;-87
2021/10/02 07:27:11;;;;;;;9.23;2.47;;;11.00;99.90;;;;;;6144779;23;20028;-85
2021/10/02 07:29:58;;;;;;;13.68;3.22;;;11.00;99.90;;;;;;6164419;23;20018;-85
2021/10/02 07:32:39;;;;;;;8.02;2.35;;;11.00;99.90;;;;;;6169168;23;20013;-83
2021/10/02 07:35:15;;;;;;;8.70;2.38;;;11.10;99.90;;;;;;6095048;23;20028;-85
2021/10/02 07:37:45;;;;;;;13.48;2.95;;;11.10;99.90;;;;;;6162430;23;20036;-84
2021/10/02 07:40:14;;;;;;;7.70;2.20;;;11.20;99.90;;;;;;6152902;23;20076;-85
2021/10/02 07:42:55;;;;;;;10.68;2.67;;;11.30;99.90;;;;;;6128180;23;20022;-84
2021/10/02 07:45:26;;;;;;;11.40;3.70;;;11.20;99.90;;;;;;6134050;23;20060;-83
2021/10/02 07:47:55;;;;;;;;;;;11.40;99.90;;;;;;6134407;23;20354;-83
2021/10/02 07:50:32;;;;;;;9.35;2.63;;;11.40;99.90;;;;;;6167658;23;19944;-86
2021/10/02 07:53:06;;;;;;;11.05;2.60;;;11.40;99.90;;;;;;6140472;23;20445;-88
2021/10/02 07:55:46;;;;;;;13.05;4.82;;;11.50;99.90;;;;;;6137430;23;20021;-86
2021/10/02 07:58:23;;;;;;;3.42;2.65;;;11.50;99.90;;;;;;6146805;23;20373;-86
2021/10/02 08:00:55;;;;;;;11.10;2.88;;;11.60;99.90;;;;;;6115179;23;20027;-86
2021/10/02 08:03:26;;;;;;;5.75;3.05;;;11.70;99.90;;;;;;6168912;23;20481;-85
2021/10/02 08:06:02;;;;;;;10.60;2.63;;;11.70;99.90;;;;;;6166868;23;20014;-86
2021/10/02 08:08:38;;;;;;;12.52;3.05;;;11.90;99.90;;;;;;6164391;23;20036;-86
2021/10/02 08:11:10;;;;;;;9.25;3.88;;;11.90;99.90;;;;;;6114472;23;20048;-85
2021/10/02 08:13:46;;;;;;;13.50;2.47;;;12.00;99.90;;;;;;6163646;23;20025;-82
2021/10/02 08:16:19;;;;;;;25.05;2.35;;;12.40;99.90;;;;;;6204324;23;20027;-80
2021/10/02 08:18:49;;;;;;;9.45;2.88;;;12.20;99.90;;;;;;6179525;23;20694;-81
2021/10/02 08:21:24;;;;;;;7.75;3.55;;;11.10;99.90;;;;;;6194474;23;20013;-82
2021/10/02 08:23:53;;;;;;;9.55;2.33;;;12.40;99.90;;;;;;6203855;23;20027;-81
2021/10/02 08:26:23;;;;;;;5.88;3.10;;;12.50;99.90;;;;;;6169162;23;20021;-81
2021/10/02 08:29:05;;;;;;;7.07;1.92;;;12.60;99.90;;;;;;6205009;23;20021;-81
2021/10/02 08:31:34;;;;;;;8.60;1.98;;;12.60;99.90;;;;;;6179129;23;20024;-82
2021/10/02 08:34:25;;;;;;;10.98;2.50;;;12.70;99.90;;;;;;6194973;23;20009;-81
2021/10/02 08:36:53;;;;;;;11.73;2.85;;;12.80;99.90;;;;;;6205723;23;20016;-80
2021/10/02 08:39:29;;;;;;;18.38;2.75;;;12.90;99.90;;;;;;6168721;23;20040;-82
2021/10/02 08:42:00;;;;;;;12.60;2.60;;;12.90;99.90;;;;;;6205552;23;20013;-80
2021/10/02 08:44:33;;;;;;;11.10;2.60;;;12.90;99.90;;;;;;6194984;23;20017;-80
2021/10/02 08:47:05;;;;;;;6.75;2.08;;;13.00;99.90;;;;;;6203600;23;20029;-82
2021/10/02 08:49:43;;;;;;;12.20;2.50;;;13.00;99.90;;;;;;6217664;23;20196;-80
2021/10/02 08:52:13;;;;;;;14.85;3.08;;;13.00;99.90;;;;;;6193393;23;20025;-82
2021/10/02 08:54:43;;;;;;;13.50;2.97;;;13.00;99.90;;;;;;6204748;23;20020;-80
2021/10/02 08:57:27;;;;;;;;;;;;;;;;;;;;;
2021/10/02 08:59:57;;;;;;;10.23;2.55;;;13.10;99.90;;;;;;6195181;23;20025;-81
2021/10/02 09:02:27;;;;;;;13.63;3.60;;;13.20;99.90;;;;;;6220729;23;20017;-81
2021/10/02 09:04:56;;;;;;;7.95;2.25;;;13.10;99.90;;;;;;6194502;23;20028;-79
2021/10/02 09:07:30;;;;;;;5.53;2.08;;;13.20;99.90;;;;;;6201715;23;20001;-84
2021/10/02 09:10:12;;;;;;;8.75;2.40;;;13.20;99.90;;;;;;6199995;23;20025;-86
2021/10/02 09:13:14;;;;;;;;;;;;;;;;;;;;;
2021/10/02 09:15:59;;;;;;;12.93;2.25;;;13.20;99.90;;;;;;6162251;23;20018;-85
2021/10/02 09:19:01;;;;;;;12.10;4.10;;;13.30;99.90;;;;;;6179038;23;20017;-81
2021/10/02 09:22:18;;;;;;;13.05;3.10;;;13.30;99.90;;;;;;6179891;23;20009;-89
2021/10/02 09:24:51;;;;;;;8.68;2.60;;;13.40;99.90;;;;;;6148665;23;20025;-81
2021/10/02 09:28:09;;;;;;;16.02;2.83;;;13.30;99.90;;;;;;6128511;23;20025;-83
2021/10/02 09:30:52;;;;;;;15.23;4.32;;;13.40;99.90;;;;;;6201371;23;20010;-84
2021/10/02 09:33:26;;;;;;;7.00;2.55;;;13.40;99.90;;;;;;6175667;23;20022;-82
2021/10/02 09:36:03;;;;;;;16.80;2.90;;;13.30;99.90;;;;;;6166834;23;20022;-82
2021/10/02 09:38:36;;;;;;;9.77;2.60;;;13.80;99.90;;;;;;6166022;23;20032;-80
2021/10/02 09:41:16;;;;;;;11.38;2.92;;;13.40;99.90;;;;;;6141176;23;20017;-81
2021/10/02 09:44:29;;;;;;;;;;;;;;;;;;;;;
2021/10/02 09:47:53;;;;;;;6.68;2.80;;;13.50;99.90;;;;;;6168543;23;20767;-83
2021/10/02 09:51:08;;;;;;;17.98;4.00;;;13.80;99.90;;;;;;6166821;23;20053;-85
2021/10/02 09:53:55;;;;;;;11.68;2.95;;;12.60;99.90;;;;;;6077945;23;20022;-81
2021/10/02 09:56:25;;;;;;;17.45;2.25;;;13.60;99.90;;;;;;6051463;23;20554;-85
2021/10/02 09:59:32;;;;;;;14.32;4.78;;;13.70;99.90;;;;;;6053630;23;20686;-82
2021/10/02 10:02:16;;;;;;;11.52;3.08;;;13.70;99.90;;;;;;6046011;23;20515;-81
2021/10/02 10:04:52;;;;;;;11.98;3.53;;;13.70;99.90;;;;;;6165557;23;20009;-85
2021/10/02 10:07:22;;;;;;;16.13;3.15;;;13.00;99.90;;;;;;6176611;23;20027;-82
2021/10/02 10:10:15;;;;;;;15.48;3.65;;;13.80;99.90;;;;;;6166715;23;20025;-84
2021/10/02 10:12:48;;;;;;;9.05;2.28;;;13.80;99.90;;;;;;6141016;23;20469;-87
2021/10/02 10:15:43;;;;;;;9.85;2.75;;;13.80;99.90;;;;;;6141638;23;20028;-83
2021/10/02 10:19:18;;;;;;;;;;;;;;;;;;;;;
2021/10/02 10:22:18;;;;;;;9.93;3.00;;;13.40;99.90;;;;;;6144880;23;20027;-89
2021/10/02 10:26:36;;;;;;;8.27;2.78;;;13.90;99.90;;;;;;6157933;23;20029;-90
2021/10/02 10:29:07;;;;;;;19.42;4.32;;;14.00;99.90;;;;;;6046201;23;20162;-91
2021/10/02 10:31:35;;;;;;;12.40;5.68;;;14.00;99.90;;;;;;6102527;23;20023;-90
2021/10/02 10:34:05;;;;;;;20.88;3.70;;;14.00;99.90;;;;;;6167177;23;20084;-85
2021/10/02 10:36:33;;;;;;;26.67;4.03;;;14.10;99.90;;;;;;6189458;23;20017;-86
2021/10/02 10:39:05;;;;;;;12.17;3.90;;;14.00;99.90;;;;;;6169131;23;20004;-88
2021/10/02 10:41:36;;;;;;;15.45;3.58;;;14.10;99.90;;;;;;6205477;23;20013;-85
2021/10/02 10:44:16;;;;;;;14.82;3.35;;;14.10;99.90;;;;;;6176390;23;20024;-88
2021/10/02 10:50:08;;;;;;;17.20;5.35;;;14.00;99.90;;;;;;6226796;23;20025;-84
2021/10/02 10:52:52;;;;;;;;;;;;;;;;;;;;;
2021/10/02 10:55:29;;;;;;;12.68;4.18;;;14.00;99.90;;;;;;6202787;23;20017;-87
2021/10/02 10:58:00;;;;;;;33.95;6.20;;;13.90;99.90;;;;;;6203162;23;20035;-83
2021/10/02 11:00:42;;;;;;;15.03;3.50;;;12.70;99.90;;;;;;6177251;23;20027;-83
2021/10/02 11:03:13;;;;;;;18.70;3.00;;;13.90;99.90;;;;;;6235279;23;20012;-87
2021/10/02 11:06:18;;;;;;;18.58;3.55;;;13.90;99.90;;;;;;6202762;23;20019;-86
2021/10/02 11:20:55;;;;;;;12.18;3.00;;;13.10;99.90;;;;;;6119470;23;20517;-85
2021/10/02 11:24:48;;;;;;;10.63;2.35;;;13.90;99.90;;;;;;6030348;23;20020;-88
2021/10/02 11:27:54;;;;;;;;;;;;;;;;;;;;;
2021/10/02 11:32:20;;;;;;;;;;;;;;;;;;;;;
2021/10/02 11:35:40;;;;;;;13.05;2.22;;;13.90;99.90;;;;;;5993347;23;20172;-84
2021/10/02 11:38:29;;;;;;;9.15;2.45;;;13.90;99.90;;;;;;5998211;23;20028;-80
2021/10/02 11:41:48;;;;;;;9.50;2.00;;;13.90;99.90;;;;;;6038812;23;20016;-81
2021/10/02 11:45:02;;;;;;;8.35;2.67;;;13.90;99.90;;;;;;5964055;24;20034;-80
2021/10/02 11:47:39;;;;;;;6.15;1.90;;;13.90;99.90;;;;;;5988501;24;20028;-80
2021/10/02 11:50:29;;;;;;;6.68;2.90;;;13.90;99.90;;;;;;5964164;23;20020;-84
2021/10/02 11:53:29;;;;;;;6.60;1.60;;;14.30;99.90;;;;;;6018678;23;20020;-83
2021/10/02 11:57:19;;;;;;;;;;;;;;;;;;;;;
2021/10/02 12:00:34;;;;;;;9.25;2.35;;;14.00;99.90;;;;;;6035941;23;20023;-83
2021/10/02 12:03:37;;;;;;;9.05;2.42;;;14.00;99.90;;;;;;6131958;23;20017;-83
2021/10/02 12:10:35;;;;;;;;;;;;;;;;;;;;;
2021/10/02 12:14:03;;;;;;;6.72;1.67;;;14.20;99.90;;;;;;6208401;23;20457;-84
2021/10/02 12:17:24;;;;;;;13.52;2.65;;;14.20;99.90;;;;;;6144644;23;20017;-84
2021/10/02 12:20:58;;;;;;;10.77;3.45;;;14.40;99.90;;;;;;6198152;23;20009;-83
2021/10/02 12:28:26;;;;;;;9.93;1.63;;;14.30;99.90;;;;;;6195744;23;20023;-81
2021/10/02 12:31:06;;;;;;;;;;;;;;;;;;;;;
2021/10/02 12:34:12;;;;;;;5.05;1.85;;;14.40;99.90;;;;;;6205103;23;20021;-80
2021/10/02 12:36:52;;;;;;;;;;;;;;;;;;;;;
2021/10/02 12:39:52;;;;;;;5.15;3.38;;;14.30;99.90;;;;;;6158307;23;20048;-81
2021/10/02 12:42:47;;;;;;;4.85;1.55;;;14.40;99.90;;;;;;6187738;23;20487;-80
2021/10/02 12:45:42;;;;;;;9.13;1.88;;;14.40;99.90;;;;;;6053838;23;20018;-82
2021/10/02 12:48:47;;;;;;;4.05;2.15;;;14.40;99.90;;;;;;6108629;23;20083;-82
2021/10/02 12:51:15;;;;;;;7.15;2.30;;;14.50;99.90;;;;;;6105748;23;20022;-81
2021/10/02 12:53:55;;;;;;;6.22;1.55;;;14.40;99.90;;;;;;6079682;23;20034;-79
2021/10/02 12:56:23;;;;;;;8.25;1.58;;;14.60;99.90;;;;;;6104824;23;20025;-80
2021/10/02 12:59:17;;;;;;;7.38;3.40;;;14.50;99.90;;;;;;6104195;23;20019;-82
2021/10/02 13:01:50;;;;;;;8.98;1.77;;;14.60;99.90;;;;;;6112885;23;20421;-80
2021/10/02 13:04:21;;;;;;;4.57;1.63;;;14.60;99.90;;;;;;6084845;23;20026;-82
2021/10/02 13:06:52;;;;;;;6.82;1.42;;;14.60;99.90;;;;;;6106871;23;20024;-81
2021/10/02 13:10:02;;;;;;;6.20;1.55;;;14.60;99.90;;;;;;6082368;23;20384;-82
2021/10/02 13:13:00;;;;;;;4.18;1.50;;;14.60;99.90;;;;;;6093293;23;20026;-80
2021/10/02 13:15:55;;;;;;;3.58;1.33;;;14.70;99.90;;;;;;6116977;23;20025;-78
2021/10/02 13:18:31;;;;;;;2.17;1.27;;;14.50;99.90;;;;;;6196048;23;20027;-85
2021/10/02 13:21:24;;;;;;;2.38;1.10;;;14.70;99.90;;;;;;6148946;23;20027;-80
2021/10/02 13:23:52;;;;;;;4.43;1.00;;;14.70;99.90;;;;;;6205103;23;20024;-82
2021/10/02 13:26:46;;;;;;;4.05;1.25;;;14.70;99.90;;;;;;6168535;23;20021;-83
2021/10/02 13:29:24;;;;;;;2.55;1.38;;;14.80;99.90;;;;;;6201686;23;20282;-78
2021/10/02 13:31:53;;;;;;;5.50;1.55;;;14.70;99.90;;;;;;6203475;23;20027;-79
2021/10/02 13:34:24;;;;;;;3.85;0.95;;;14.70;99.90;;;;;;6200116;23;20211;-80
2021/10/02 13:37:03;;;;;;;11.48;1.55;;;14.20;99.90;;;;;;6168071;23;20573;-80
2021/10/02 13:39:31;;;;;;;4.05;1.42;;;14.80;99.90;;;;;;6143708;23;20023;-81
2021/10/02 13:42:07;;;;;;;1.42;0.90;;;14.70;99.90;;;;;;6175323;23;20031;-78
2021/10/02 13:44:35;;;;;;;4.72;1.30;;;14.70;99.90;;;;;;6151738;23;20047;-79
2021/10/02 13:47:05;;;;;;;4.97;1.13;;;15.20;99.90;;;;;;6200915;23;20017;-78
2021/10/02 13:49:33;;;;;;;1.92;0.90;;;14.70;99.90;;;;;;6197915;23;20017;-81
2021/10/02 13:52:01;;;;;;;1.08;0.90;;;15.30;99.90;;;;;;6201100;23;20013;-80
2021/10/02 13:54:31;;;;;;;1.38;0.80;;;14.60;99.90;;;;;;6165855;23;20031;-77
2021/10/02 13:57:06;;;;;;;5.13;0.75;;;14.60;99.90;;;;;;6192404;23;20021;-79
2021/10/02 13:59:41;;;;;;;3.78;1.30;;;14.60;99.90;;;;;;6193839;23;20021;-80
2021/10/02 14:02:10;;;;;;;3.92;1.33;;;14.20;99.90;;;;;;6201683;23;20023;-78
2021/10/02 14:04:42;;;;;;;6.05;1.90;;;14.70;99.90;;;;;;6194149;23;20065;-81
2021/10/02 14:07:24;;;;;;;6.75;1.67;;;14.70;99.90;;;;;;6206388;23;20268;-81
2021/10/02 14:09:52;;;;;;;4.28;1.65;;;14.70;99.90;;;;;;6178940;23;20025;-81
2021/10/02 14:12:20;;;;;;;6.90;1.77;;;14.80;99.90;;;;;;6178839;23;20020;-82
2021/10/02 14:14:50;;;;;;;8.52;1.77;;;14.80;99.90;;;;;;6143990;23;20076;-79
2021/10/02 14:17:20;;;;;;;4.80;1.45;;;14.80;99.90;;;;;;6166709;23;20031;-79
2021/10/02 14:19:59;;;;;;;5.70;1.57;;;14.80;99.90;;;;;;6193196;23;20378;-81
2021/10/02 14:22:30;;;;;;;6.72;1.83;;;15.00;99.90;;;;;;6154070;23;20561;-81
2021/10/02 14:24:59;;;;;;;6.47;2.10;;;14.90;99.90;;;;;;6175401;23;20013;-79
2021/10/02 14:27:31;;;;;;;2.13;1.50;;;14.90;99.90;;;;;;6203007;23;20013;-81
2021/10/02 14:30:07;;;;;;;3.88;1.45;;;14.90;99.90;;;;;;6167977;23;20017;-83
2021/10/02 14:32:47;;;;;;;9.35;2.58;;;14.90;99.90;;;;;;6171170;23;20021;-82
2021/10/02 14:35:26;;;;;;;6.53;2.25;;;14.90;99.90;;;;;;6204187;23;20451;-83
2021/10/02 14:37:56;;;;;;;2.70;1.63;;;14.90;99.90;;;;;;6152563;23;20029;-81
2021/10/02 14:40:24;;;;;;;5.50;1.80;;;14.90;99.90;;;;;;6202357;23;20023;-81
2021/10/02 14:43:02;;;;;;;7.85;3.25;;;14.90;99.90;;;;;;6164654;23;20031;-79
2021/10/02 14:45:44;;;;;;;5.55;1.80;;;14.90;99.90;;;;;;6142853;23;20020;-79
2021/10/02 14:48:12;;;;;;;11.68;3.72;;;14.90;99.90;;;;;;6203435;23;20017;-82
2021/10/02 14:50:42;;;;;;;1.73;1.60;;;14.90;99.90;;;;;;6166105;23;20035;-83
2021/10/02 14:53:36;;;;;;;2.85;1.77;;;14.90;99.90;;;;;;6200516;23;20017;-86
2021/10/02 14:56:20;;;;;;;6.25;1.25;;;15.00;99.90;;;;;;6200870;23;20036;-83
2021/10/02 14:59:31;;;;;;;5.18;1.60;;;14.90;99.90;;;;;;6202111;23;20031;-78
2021/10/02 15:02:14;;;;;;;4.10;1.73;;;14.90;99.90;;;;;;6192138;23;20017;-85
2021/10/02 15:05:09;;;;;;;6.82;1.85;;;15.80;99.90;;;;;;6192539;23;20025;-81
2021/10/02 15:14:38;;;;;;;3.58;1.67;;;14.90;99.90;;;;;;6168231;23;20024;-79
2021/10/02 15:17:06;;;;;;;7.43;2.17;;;14.90;99.90;;;;;;6205109;23;20027;-80
2021/10/02 15:19:38;;;;;;;5.57;2.30;;;13.80;99.90;;;;;;6194278;23;20024;-82
2021/10/02 15:22:18;;;;;;;7.15;1.77;;;14.90;99.90;;;;;;6166912;23;20345;-78
2021/10/02 15:24:56;;;;;;;7.32;2.53;;;14.90;99.90;;;;;;6143848;23;20025;-82
2021/10/02 15:27:54;;;;;;;7.47;2.17;;;14.80;99.90;;;;;;6204524;23;20025;-83
2021/10/02 15:30:47;;;;;;;6.00;1.73;;;14.80;99.90;;;;;;6226806;23;20017;-81
2021/10/02 15:33:30;;;;;;;4.53;1.30;;;14.80;99.90;;;;;;6162699;23;20017;-82
2021/10/02 15:36:06;;;;;;;3.58;1.38;;;15.00;99.90;;;;;;6167798;23;20021;-80